sensor_id;sensor_type;location;lat;lon;timestamp;P1;durP1;ratioP1;P2;durP2;ratioP2
9042;SDS011;4556;49.150;8.808;2023-05-16T03:22:51;43.83;;;32.17;;
9042;SDS011;4556;49.150;8.808;2023-05-16T03:25:18;43.67;;;31.53;;
9042;SDS011;4556;49.150;8.808;2023-05-16T03:27:45;43.03;;;32.07;;
9042;SDS011;4556;49.150;8.808;2023-05-16T03:30:14;44.30;;;31.47;;
9042;SDS011;4556;49.150;8.808;2023-05-16T03:32:43;42.20;;;31.23;;
9042;SDS011;4556;49.150;8.808;2023-05-16T03:35:15;41.00;;;31.53;;
9042;SDS011;4556;49.150;8.808;2023-05-16T03:37:44;45.30;;;33.13;;
9042;SDS011;4556;49.150;8.808;2023-05-16T03:40:11;40.73;;;31.80;;
9042;SDS011;4556;49.150;8.808;2023-05-16T03:42:38;43.40;;;31.07;;
9042;SDS011;4556;49.150;8.808;2023-05-16T03:45:05;41.23;;;31.57;;
9042;SDS011;4556;49.150;8.808;2023-05-16T03:47:33;42.13;;;31.60;;
9042;SDS011;4556;49.150;8.808;2023-05-16T03:50:00;45.07;;;32.47;;
9042;SDS011;4556;49.150;8.808;2023-05-16T03:52:27;45.73;;;33.40;;
9042;SDS011;4556;49.150;8.808;2023-05-16T03:55:05;42.47;;;31.97;;
9042;SDS011;4556;49.150;8.808;2023-05-16T03:57:39;44.17;;;32.77;;
9042;SDS011;4556;49.150;8.808;2023-05-16T04:00:07;42.90;;;33.87;;
9042;SDS011;4556;49.150;8.808;2023-05-16T04:02:36;42.50;;;32.23;;
9042;SDS011;4556;49.150;8.808;2023-05-16T04:05:12;44.03;;;33.33;;
9042;SDS011;4556;49.150;8.808;2023-05-16T04:07:42;42.23;;;32.37;;
9042;SDS011;4556;49.150;8.808;2023-05-16T04:13:02;43.07;;;31.77;;
9042;SDS011;4556;49.150;8.808;2023-05-16T04:15:29;43.30;;;31.50;;
9042;SDS011;4556;49.150;8.808;2023-05-16T04:17:56;40.00;;;31.00;;
9042;SDS011;4556;49.150;8.808;2023-05-16T04:20:29;41.87;;;31.07;;
9042;SDS011;4556;49.150;8.808;2023-05-16T04:22:56;41.40;;;31.63;;
9042;SDS011;4556;49.150;8.808;2023-05-16T04:25:23;39.10;;;29.93;;
9042;SDS011;4556;49.150;8.808;2023-05-16T04:30:33;38.07;;;28.33;;
9042;SDS011;4556;49.150;8.808;2023-05-16T04:33:01;34.13;;;26.40;;
9042;SDS011;4556;49.150;8.808;2023-05-16T04:35:28;36.13;;;26.30;;
9042;SDS011;4556;49.150;8.808;2023-05-16T04:37:55;37.83;;;26.63;;
9042;SDS011;4556;49.150;8.808;2023-05-16T04:40:21;34.77;;;26.13;;
9042;SDS011;4556;49.150;8.808;2023-05-16T04:42:49;35.17;;;26.27;;
9042;SDS011;4556;49.150;8.808;2023-05-16T04:45:20;37.13;;;25.77;;
9042;SDS011;4556;49.150;8.808;2023-05-16T04:47:47;31.57;;;24.07;;
9042;SDS011;4556;49.150;8.808;2023-05-16T04:50:13;34.67;;;26.27;;
9042;SDS011;4556;49.150;8.808;2023-05-16T04:52:42;34.67;;;25.23;;
9042;SDS011;4556;49.150;8.808;2023-05-16T04:55:09;33.20;;;24.93;;
9042;SDS011;4556;49.150;8.808;2023-05-16T04:57:42;32.13;;;24.30;;
9042;SDS011;4556;49.150;8.808;2023-05-16T05:00:09;33.43;;;25.33;;
9042;SDS011;4556;49.150;8.808;2023-05-16T05:02:44;32.43;;;24.73;;
9042;SDS011;4556;49.150;8.808;2023-05-16T05:05:11;34.73;;;24.43;;
9042;SDS011;4556;49.150;8.808;2023-05-16T05:07:38;33.87;;;24.27;;
9042;SDS011;4556;49.150;8.808;2023-05-16T05:10:05;32.70;;;24.13;;
9042;SDS011;4556;49.150;8.808;2023-05-16T05:12:33;37.47;;;23.27;;
9042;SDS011;4556;49.150;8.808;2023-05-16T05:15:01;30.53;;;22.70;;
9042;SDS011;4556;49.150;8.808;2023-05-16T05:17:30;30.00;;;22.83;;
9042;SDS011;4556;49.150;8.808;2023-05-16T05:20:07;31.07;;;22.53;;
9042;SDS011;4556;49.150;8.808;2023-05-16T05:23:16;30.60;;;21.93;;
9042;SDS011;4556;49.150;8.808;2023-05-16T05:25:48;31.93;;;23.07;;
9042;SDS011;4556;49.150;8.808;2023-05-16T05:28:23;30.17;;;22.87;;
9042;SDS011;4556;49.150;8.808;2023-05-16T05:31:10;31.97;;;22.73;;
9042;SDS011;4556;49.150;8.808;2023-05-16T05:33:39;32.97;;;21.97;;
9042;SDS011;4556;49.150;8.808;2023-05-16T05:39:10;27.57;;;21.07;;
9042;SDS011;4556;49.150;8.808;2023-05-16T05:41:37;26.70;;;21.40;;
9042;SDS011;4556;49.150;8.808;2023-05-16T05:44:15;31.00;;;21.20;;
9042;SDS011;4556;49.150;8.808;2023-05-16T05:47:00;30.70;;;20.73;;
9042;SDS011;4556;49.150;8.808;2023-05-16T05:49:32;28.93;;;20.93;;
9042;SDS011;4556;49.150;8.808;2023-05-16T05:52:19;31.17;;;21.90;;
9042;SDS011;4556;49.150;8.808;2023-05-16T05:54:48;33.47;;;20.93;;
9042;SDS011;4556;49.150;8.808;2023-05-16T05:57:18;30.97;;;21.03;;
9042;SDS011;4556;49.150;8.808;2023-05-16T06:00:09;30.27;;;21.13;;
9042;SDS011;4556;49.150;8.808;2023-05-16T06:02:37;32.27;;;20.53;;
9042;SDS011;4556;49.150;8.808;2023-05-16T06:05:05;31.33;;;20.30;;
9042;SDS011;4556;49.150;8.808;2023-05-16T06:07:51;29.83;;;21.20;;
9042;SDS011;4556;49.150;8.808;2023-05-16T06:10:23;28.37;;;20.70;;
9042;SDS011;4556;49.150;8.808;2023-05-16T06:12:50;31.83;;;21.87;;
9042;SDS011;4556;49.150;8.808;2023-05-16T06:15:18;29.93;;;21.30;;
9042;SDS011;4556;49.150;8.808;2023-05-16T06:17:45;30.00;;;20.57;;
9042;SDS011;4556;49.150;8.808;2023-05-16T06:20:13;31.97;;;22.27;;
9042;SDS011;4556;49.150;8.808;2023-05-16T06:22:48;31.57;;;22.13;;
9042;SDS011;4556;49.150;8.808;2023-05-16T06:25:20;30.37;;;21.00;;
9042;SDS011;4556;49.150;8.808;2023-05-16T06:27:46;32.23;;;22.00;;
9042;SDS011;4556;49.150;8.808;2023-05-16T06:30:18;34.10;;;20.83;;
9042;SDS011;4556;49.150;8.808;2023-05-16T06:32:47;29.27;;;20.40;;
9042;SDS011;4556;49.150;8.808;2023-05-16T06:35:14;31.83;;;22.13;;
9042;SDS011;4556;49.150;8.808;2023-05-16T06:37:42;28.17;;;19.83;;
9042;SDS011;4556;49.150;8.808;2023-05-16T06:40:10;28.83;;;20.43;;
9042;SDS011;4556;49.150;8.808;2023-05-16T06:42:38;33.50;;;21.23;;
9042;SDS011;4556;49.150;8.808;2023-05-16T06:45:06;34.13;;;21.87;;
9042;SDS011;4556;49.150;8.808;2023-05-16T06:47:34;30.53;;;21.03;;
9042;SDS011;4556;49.150;8.808;2023-05-16T06:50:02;32.30;;;20.33;;
9042;SDS011;4556;49.150;8.808;2023-05-16T06:52:29;28.87;;;20.87;;
9042;SDS011;4556;49.150;8.808;2023-05-16T06:54:56;29.63;;;20.97;;
9042;SDS011;4556;49.150;8.808;2023-05-16T06:57:25;28.50;;;19.93;;
9042;SDS011;4556;49.150;8.808;2023-05-16T06:59:53;26.40;;;19.63;;
9042;SDS011;4556;49.150;8.808;2023-05-16T07:02:20;26.80;;;19.43;;
9042;SDS011;4556;49.150;8.808;2023-05-16T07:04:47;28.30;;;19.37;;
9042;SDS011;4556;49.150;8.808;2023-05-16T07:07:14;28.03;;;19.60;;
9042;SDS011;4556;49.150;8.808;2023-05-16T07:09:41;27.43;;;20.60;;
9042;SDS011;4556;49.150;8.808;2023-05-16T07:12:08;26.57;;;18.87;;
9042;SDS011;4556;49.150;8.808;2023-05-16T07:14:37;23.60;;;17.80;;
9042;SDS011;4556;49.150;8.808;2023-05-16T07:17:04;26.37;;;17.47;;
9042;SDS011;4556;49.150;8.808;2023-05-16T07:19:32;21.97;;;16.47;;
9042;SDS011;4556;49.150;8.808;2023-05-16T07:21:59;24.97;;;17.77;;
9042;SDS011;4556;49.150;8.808;2023-05-16T07:24:26;25.00;;;17.13;;
9042;SDS011;4556;49.150;8.808;2023-05-16T07:26:55;24.57;;;17.43;;
9042;SDS011;4556;49.150;8.808;2023-05-16T07:29:22;24.47;;;16.20;;
9042;SDS011;4556;49.150;8.808;2023-05-16T07:31:50;25.33;;;16.37;;
9042;SDS011;4556;49.150;8.808;2023-05-16T07:34:17;22.10;;;16.70;;
9042;SDS011;4556;49.150;8.808;2023-05-16T07:36:44;25.23;;;16.43;;
9042;SDS011;4556;49.150;8.808;2023-05-16T07:39:11;18.73;;;15.10;;
9042;SDS011;4556;49.150;8.808;2023-05-16T07:41:39;20.73;;;15.93;;
9042;SDS011;4556;49.150;8.808;2023-05-16T07:44:06;22.13;;;15.13;;
9042;SDS011;4556;49.150;8.808;2023-05-16T07:46:33;18.87;;;14.60;;
9042;SDS011;4556;49.150;8.808;2023-05-16T07:49:01;20.40;;;14.67;;
9042;SDS011;4556;49.150;8.808;2023-05-16T07:51:29;19.97;;;14.10;;
9042;SDS011;4556;49.150;8.808;2023-05-16T07:53:56;16.70;;;12.97;;
9042;SDS011;4556;49.150;8.808;2023-05-16T07:56:23;16.00;;;13.00;;
9042;SDS011;4556;49.150;8.808;2023-05-16T07:58:50;17.03;;;11.83;;
9042;SDS011;4556;49.150;8.808;2023-05-16T08:01:17;15.83;;;11.97;;
9042;SDS011;4556;49.150;8.808;2023-05-16T08:03:46;16.33;;;11.40;;
9042;SDS011;4556;49.150;8.808;2023-05-16T08:06:14;16.47;;;12.00;;
9042;SDS011;4556;49.150;8.808;2023-05-16T08:08:41;16.57;;;11.47;;
9042;SDS011;4556;49.150;8.808;2023-05-16T08:11:08;17.43;;;11.50;;
9042;SDS011;4556;49.150;8.808;2023-05-16T08:13:35;14.30;;;10.33;;
9042;SDS011;4556;49.150;8.808;2023-05-16T08:16:03;14.93;;;10.97;;
9042;SDS011;4556;49.150;8.808;2023-05-16T08:18:31;14.17;;;10.87;;
9042;SDS011;4556;49.150;8.808;2023-05-16T08:20:58;14.40;;;11.17;;
9042;SDS011;4556;49.150;8.808;2023-05-16T08:23:26;14.63;;;9.80;;
9042;SDS011;4556;49.150;8.808;2023-05-16T08:25:54;12.97;;;9.47;;
9042;SDS011;4556;49.150;8.808;2023-05-16T08:28:21;12.63;;;9.30;;
9042;SDS011;4556;49.150;8.808;2023-05-16T08:30:48;11.17;;;8.40;;
9042;SDS011;4556;49.150;8.808;2023-05-16T08:45:07;6.53;;;5.93;;
9042;SDS011;4556;49.150;8.808;2023-05-16T08:55:49;7.37;;;6.27;;
9042;SDS011;4556;49.150;8.808;2023-05-16T09:03:58;8.60;;;6.17;;
9042;SDS011;4556;49.150;8.808;2023-05-16T09:09:25;7.87;;;5.23;;
9042;SDS011;4556;49.150;8.808;2023-05-16T09:12:19;6.40;;;4.77;;
9042;SDS011;4556;49.150;8.808;2023-05-16T09:14:48;5.57;;;4.77;;
9042;SDS011;4556;49.150;8.808;2023-05-16T09:17:17;4.20;;;3.77;;
9042;SDS011;4556;49.150;8.808;2023-05-16T09:19:47;4.70;;;3.80;;
9042;SDS011;4556;49.150;8.808;2023-05-16T09:22:23;5.00;;;3.67;;
9042;SDS011;4556;49.150;8.808;2023-05-16T09:25:00;5.03;;;3.43;;
9042;SDS011;4556;49.150;8.808;2023-05-16T09:27:29;6.67;;;3.20;;
9042;SDS011;4556;49.150;8.808;2023-05-16T09:29:57;4.00;;;2.97;;
9042;SDS011;4556;49.150;8.808;2023-05-16T09:35:13;2.90;;;2.57;;
9042;SDS011;4556;49.150;8.808;2023-05-16T09:38:03;2.87;;;2.43;;
9042;SDS011;4556;49.150;8.808;2023-05-16T09:40:52;3.33;;;3.00;;
9042;SDS011;4556;49.150;8.808;2023-05-16T09:43:28;7.40;;;2.87;;
9042;SDS011;4556;49.150;8.808;2023-05-16T09:45:58;3.83;;;3.43;;
9042;SDS011;4556;49.150;8.808;2023-05-16T09:48:43;4.53;;;3.50;;
9042;SDS011;4556;49.150;8.808;2023-05-16T09:51:12;4.30;;;3.60;;
9042;SDS011;4556;49.150;8.808;2023-05-16T09:53:52;4.87;;;3.90;;
9042;SDS011;4556;49.150;8.808;2023-05-16T09:56:20;5.97;;;4.03;;
9042;SDS011;4556;49.150;8.808;2023-05-16T09:58:47;5.60;;;3.90;;
9042;SDS011;4556;49.150;8.808;2023-05-16T10:01:20;6.23;;;3.40;;
9042;SDS011;4556;49.150;8.808;2023-05-16T10:04:02;3.40;;;3.00;;
9042;SDS011;4556;49.150;8.808;2023-05-16T10:06:33;3.43;;;2.80;;
9042;SDS011;4556;49.150;8.808;2023-05-16T10:09:27;3.43;;;3.13;;
9042;SDS011;4556;49.150;8.808;2023-05-16T10:11:55;3.10;;;2.70;;
9042;SDS011;4556;49.150;8.808;2023-05-16T10:14:22;3.20;;;2.60;;
9042;SDS011;4556;49.150;8.808;2023-05-16T10:16:51;3.03;;;2.10;;
9042;SDS011;4556;49.150;8.808;2023-05-16T10:19:27;3.33;;;2.60;;
9042;SDS011;4556;49.150;8.808;2023-05-16T10:22:28;3.17;;;2.40;;
9042;SDS011;4556;49.150;8.808;2023-05-16T10:25:27;4.33;;;1.87;;
9042;SDS011;4556;49.150;8.808;2023-05-16T10:27:59;2.40;;;2.20;;
9042;SDS011;4556;49.150;8.808;2023-05-16T10:33:03;2.70;;;2.50;;
9042;SDS011;4556;49.150;8.808;2023-05-16T10:45:31;1.97;;;1.60;;
9042;SDS011;4556;49.150;8.808;2023-05-16T10:54:03;3.37;;;1.77;;
9042;SDS011;4556;49.150;8.808;2023-05-16T10:56:31;1.93;;;1.47;;
9042;SDS011;4556;49.150;8.808;2023-05-16T11:10:09;1.40;;;1.30;;
9042;SDS011;4556;49.150;8.808;2023-05-16T11:13:12;1.77;;;1.30;;
9042;SDS011;4556;49.150;8.808;2023-05-16T11:15:33;2.30;;;1.20;;
9042;SDS011;4556;49.150;8.808;2023-05-16T11:18:08;4.00;;;1.40;;
9042;SDS011;4556;49.150;8.808;2023-05-16T11:20:42;1.30;;;1.00;;
9042;SDS011;4556;49.150;8.808;2023-05-16T11:23:22;1.37;;;1.27;;
9042;SDS011;4556;49.150;8.808;2023-05-16T11:25:55;1.83;;;1.50;;
9042;SDS011;4556;49.150;8.808;2023-05-16T11:28:25;1.57;;;1.43;;
9042;SDS011;4556;49.150;8.808;2023-05-16T11:30:54;4.60;;;1.80;;
9042;SDS011;4556;49.150;8.808;2023-05-16T11:33:24;1.67;;;1.57;;
9042;SDS011;4556;49.150;8.808;2023-05-16T11:36:02;2.00;;;1.80;;
9042;SDS011;4556;49.150;8.808;2023-05-16T11:38:34;2.50;;;1.80;;
9042;SDS011;4556;49.150;8.808;2023-05-16T11:41:06;2.63;;;1.90;;
9042;SDS011;4556;49.150;8.808;2023-05-16T11:43:39;4.40;;;2.03;;
9042;SDS011;4556;49.150;8.808;2023-05-16T11:46:09;3.97;;;1.60;;
9042;SDS011;4556;49.150;8.808;2023-05-16T11:48:37;1.67;;;1.57;;
9042;SDS011;4556;49.150;8.808;2023-05-16T11:51:04;1.33;;;1.20;;
9042;SDS011;4556;49.150;8.808;2023-05-16T11:53:33;1.90;;;1.70;;
9042;SDS011;4556;49.150;8.808;2023-05-16T11:56:00;1.40;;;1.30;;
9042;SDS011;4556;49.150;8.808;2023-05-16T11:58:31;2.93;;;1.30;;
9042;SDS011;4556;49.150;8.808;2023-05-16T12:00:58;3.70;;;1.53;;
9042;SDS011;4556;49.150;8.808;2023-05-16T12:03:25;1.73;;;1.20;;
9042;SDS011;4556;49.150;8.808;2023-05-16T12:05:53;4.30;;;1.40;;
9042;SDS011;4556;49.150;8.808;2023-05-16T12:08:22;3.10;;;1.10;;
9042;SDS011;4556;49.150;8.808;2023-05-16T12:10:50;3.47;;;1.43;;
9042;SDS011;4556;49.150;8.808;2023-05-16T12:13:19;1.73;;;1.20;;
9042;SDS011;4556;49.150;8.808;2023-05-16T12:15:49;2.90;;;1.20;;
9042;SDS011;4556;49.150;8.808;2023-05-16T12:18:17;2.27;;;1.17;;
9042;SDS011;4556;49.150;8.808;2023-05-16T12:20:45;1.53;;;1.10;;
9042;SDS011;4556;49.150;8.808;2023-05-16T12:23:12;4.90;;;1.33;;
9042;SDS011;4556;49.150;8.808;2023-05-16T12:25:45;1.73;;;1.10;;
9042;SDS011;4556;49.150;8.808;2023-05-16T12:28:21;2.70;;;1.47;;
9042;SDS011;4556;49.150;8.808;2023-05-16T12:30:52;4.40;;;1.13;;
9042;SDS011;4556;49.150;8.808;2023-05-16T12:33:20;2.50;;;1.20;;
9042;SDS011;4556;49.150;8.808;2023-05-16T12:35:51;1.83;;;1.10;;
9042;SDS011;4556;49.150;8.808;2023-05-16T12:38:19;3.40;;;1.20;;
9042;SDS011;4556;49.150;8.808;2023-05-16T12:40:50;2.17;;;1.10;;
9042;SDS011;4556;49.150;8.808;2023-05-16T12:43:24;2.50;;;1.27;;
9042;SDS011;4556;49.150;8.808;2023-05-16T12:45:54;1.87;;;1.17;;
9042;SDS011;4556;49.150;8.808;2023-05-16T12:48:32;3.13;;;1.20;;
9042;SDS011;4556;49.150;8.808;2023-05-16T12:51:08;2.87;;;1.33;;
9042;SDS011;4556;49.150;8.808;2023-05-16T12:53:41;1.60;;;1.07;;
9042;SDS011;4556;49.150;8.808;2023-05-16T12:56:10;3.33;;;1.10;;
9042;SDS011;4556;49.150;8.808;2023-05-16T12:58:39;1.73;;;0.90;;
9042;SDS011;4556;49.150;8.808;2023-05-16T13:01:09;2.40;;;1.00;;
9042;SDS011;4556;49.150;8.808;2023-05-16T13:03:36;1.83;;;1.23;;
9042;SDS011;4556;49.150;8.808;2023-05-16T13:06:03;2.00;;;1.20;;
9042;SDS011;4556;49.150;8.808;2023-05-16T13:08:31;2.57;;;1.00;;
9042;SDS011;4556;49.150;8.808;2023-05-16T13:10:57;1.97;;;0.90;;
9042;SDS011;4556;49.150;8.808;2023-05-16T13:13:30;1.97;;;0.87;;
9042;SDS011;4556;49.150;8.808;2023-05-16T13:16:35;2.07;;;0.90;;
9042;SDS011;4556;49.150;8.808;2023-05-16T13:19:02;3.23;;;1.20;;
9042;SDS011;4556;49.150;8.808;2023-05-16T13:21:30;1.90;;;1.20;;
9042;SDS011;4556;49.150;8.808;2023-05-16T13:23:58;4.07;;;1.53;;
9042;SDS011;4556;49.150;8.808;2023-05-16T13:26:40;3.97;;;1.60;;
9042;SDS011;4556;49.150;8.808;2023-05-16T13:31:41;4.63;;;1.43;;
9042;SDS011;4556;49.150;8.808;2023-05-16T13:34:08;2.80;;;1.50;;
9042;SDS011;4556;49.150;8.808;2023-05-16T13:36:47;3.97;;;1.53;;
9042;SDS011;4556;49.150;8.808;2023-05-16T13:39:14;4.77;;;1.73;;
9042;SDS011;4556;49.150;8.808;2023-05-16T13:41:44;2.93;;;1.30;;
9042;SDS011;4556;49.150;8.808;2023-05-16T13:44:15;3.37;;;1.50;;
9042;SDS011;4556;49.150;8.808;2023-05-16T13:46:52;2.93;;;1.57;;
9042;SDS011;4556;49.150;8.808;2023-05-16T13:49:19;5.30;;;1.43;;
9042;SDS011;4556;49.150;8.808;2023-05-16T13:51:50;1.97;;;1.23;;
9042;SDS011;4556;49.150;8.808;2023-05-16T13:54:42;4.63;;;1.90;;
9042;SDS011;4556;49.150;8.808;2023-05-16T13:57:57;5.10;;;1.57;;
9042;SDS011;4556;49.150;8.808;2023-05-16T14:00:27;5.63;;;1.63;;
9042;SDS011;4556;49.150;8.808;2023-05-16T14:03:10;3.30;;;1.27;;
9042;SDS011;4556;49.150;8.808;2023-05-16T14:05:37;4.40;;;1.93;;
9042;SDS011;4556;49.150;8.808;2023-05-16T14:08:04;3.53;;;1.60;;
9042;SDS011;4556;49.150;8.808;2023-05-16T14:10:58;3.73;;;1.40;;
9042;SDS011;4556;49.150;8.808;2023-05-16T14:13:39;3.70;;;1.57;;
9042;SDS011;4556;49.150;8.808;2023-05-16T14:16:07;4.33;;;1.40;;
9042;SDS011;4556;49.150;8.808;2023-05-16T14:18:56;3.27;;;1.20;;
9042;SDS011;4556;49.150;8.808;2023-05-16T14:21:23;2.20;;;1.30;;
9042;SDS011;4556;49.150;8.808;2023-05-16T14:23:52;3.13;;;1.40;;
9042;SDS011;4556;49.150;8.808;2023-05-16T14:26:41;3.10;;;1.30;;
9042;SDS011;4556;49.150;8.808;2023-05-16T14:29:20;2.23;;;1.07;;
9042;SDS011;4556;49.150;8.808;2023-05-16T14:32:01;6.23;;;1.63;;
9042;SDS011;4556;49.150;8.808;2023-05-16T14:34:41;3.63;;;1.60;;
9042;SDS011;4556;49.150;8.808;2023-05-16T14:37:14;7.13;;;1.63;;
9042;SDS011;4556;49.150;8.808;2023-05-16T14:39:43;7.33;;;2.00;;
9042;SDS011;4556;49.150;8.808;2023-05-16T14:42:25;4.73;;;1.70;;
9042;SDS011;4556;49.150;8.808;2023-05-16T14:44:52;4.40;;;1.40;;
9042;SDS011;4556;49.150;8.808;2023-05-16T14:48:00;5.03;;;1.90;;
9042;SDS011;4556;49.150;8.808;2023-05-16T14:50:39;6.30;;;1.70;;
9042;SDS011;4556;49.150;8.808;2023-05-16T14:53:09;3.97;;;1.43;;
9042;SDS011;4556;49.150;8.808;2023-05-16T14:55:36;2.90;;;1.23;;
9042;SDS011;4556;49.150;8.808;2023-05-16T14:58:03;4.90;;;1.33;;
9042;SDS011;4556;49.150;8.808;2023-05-16T15:00:37;4.67;;;1.40;;
9042;SDS011;4556;49.150;8.808;2023-05-16T15:03:15;3.50;;;1.50;;
9042;SDS011;4556;49.150;8.808;2023-05-16T15:05:48;4.63;;;1.40;;
9042;SDS011;4556;49.150;8.808;2023-05-16T15:08:16;5.00;;;1.47;;
9042;SDS011;4556;49.150;8.808;2023-05-16T15:10:43;3.80;;;1.17;;
9042;SDS011;4556;49.150;8.808;2023-05-16T15:13:10;2.13;;;1.20;;
9042;SDS011;4556;49.150;8.808;2023-05-16T15:15:37;2.73;;;1.10;;
9042;SDS011;4556;49.150;8.808;2023-05-16T15:18:05;4.87;;;1.30;;
9042;SDS011;4556;49.150;8.808;2023-05-16T15:20:32;1.90;;;0.90;;
9042;SDS011;4556;49.150;8.808;2023-05-16T15:23:01;4.73;;;1.23;;
9042;SDS011;4556;49.150;8.808;2023-05-16T15:25:28;3.90;;;1.00;;
9042;SDS011;4556;49.150;8.808;2023-05-16T15:27:55;2.23;;;1.03;;
9042;SDS011;4556;49.150;8.808;2023-05-16T15:30:22;2.13;;;0.90;;
9042;SDS011;4556;49.150;8.808;2023-05-16T15:32:49;2.87;;;0.90;;
9042;SDS011;4556;49.150;8.808;2023-05-16T15:35:17;3.47;;;1.10;;
9042;SDS011;4556;49.150;8.808;2023-05-16T15:37:44;1.83;;;1.10;;
9042;SDS011;4556;49.150;8.808;2023-05-16T15:40:13;4.60;;;1.13;;
9042;SDS011;4556;49.150;8.808;2023-05-16T15:42:40;3.47;;;1.17;;
9042;SDS011;4556;49.150;8.808;2023-05-16T15:45:09;2.40;;;1.00;;
9042;SDS011;4556;49.150;8.808;2023-05-16T15:47:36;4.03;;;1.20;;
9042;SDS011;4556;49.150;8.808;2023-05-16T15:50:03;5.97;;;1.10;;
9042;SDS011;4556;49.150;8.808;2023-05-16T15:52:31;3.67;;;0.90;;
9042;SDS011;4556;49.150;8.808;2023-05-16T15:54:59;3.93;;;1.10;;
9042;SDS011;4556;49.150;8.808;2023-05-16T15:57:29;4.20;;;1.30;;
9042;SDS011;4556;49.150;8.808;2023-05-16T15:59:56;3.27;;;0.80;;
9042;SDS011;4556;49.150;8.808;2023-05-16T16:02:40;3.30;;;1.10;;
9042;SDS011;4556;49.150;8.808;2023-05-16T16:05:10;5.67;;;1.50;;
9042;SDS011;4556;49.150;8.808;2023-05-16T16:07:38;4.80;;;1.07;;
9042;SDS011;4556;49.150;8.808;2023-05-16T16:10:36;4.53;;;1.13;;
9042;SDS011;4556;49.150;8.808;2023-05-16T16:13:15;2.77;;;1.10;;
9042;SDS011;4556;49.150;8.808;2023-05-16T16:16:13;2.67;;;0.90;;
9042;SDS011;4556;49.150;8.808;2023-05-16T16:18:45;4.30;;;1.17;;
9042;SDS011;4556;49.150;8.808;2023-05-16T16:21:14;5.60;;;1.50;;
9042;SDS011;4556;49.150;8.808;2023-05-16T16:23:41;2.87;;;1.00;;
9042;SDS011;4556;49.150;8.808;2023-05-16T16:26:08;3.43;;;1.20;;
9042;SDS011;4556;49.150;8.808;2023-05-16T16:28:41;5.67;;;0.97;;
9042;SDS011;4556;49.150;8.808;2023-05-16T16:31:25;5.20;;;0.97;;
9042;SDS011;4556;49.150;8.808;2023-05-16T16:33:52;1.10;;;0.70;;
9042;SDS011;4556;49.150;8.808;2023-05-16T16:36:33;2.07;;;0.90;;
9042;SDS011;4556;49.150;8.808;2023-05-16T16:39:27;3.73;;;1.10;;
9042;SDS011;4556;49.150;8.808;2023-05-16T16:42:10;3.00;;;0.80;;
9042;SDS011;4556;49.150;8.808;2023-05-16T16:44:38;4.43;;;0.73;;
9042;SDS011;4556;49.150;8.808;2023-05-16T16:47:06;5.40;;;1.10;;
9042;SDS011;4556;49.150;8.808;2023-05-16T16:50:06;2.87;;;0.87;;
9042;SDS011;4556;49.150;8.808;2023-05-16T16:52:33;3.53;;;0.90;;
9042;SDS011;4556;49.150;8.808;2023-05-16T16:55:06;2.53;;;0.83;;
9042;SDS011;4556;49.150;8.808;2023-05-16T16:58:02;3.73;;;0.83;;
9042;SDS011;4556;49.150;8.808;2023-05-16T17:03:37;1.60;;;0.73;;
9042;SDS011;4556;49.150;8.808;2023-05-16T17:06:04;3.77;;;0.90;;
9042;SDS011;4556;49.150;8.808;2023-05-16T17:09:14;5.07;;;0.80;;
9042;SDS011;4556;49.150;8.808;2023-05-16T17:14:21;3.33;;;0.97;;
9042;SDS011;4556;49.150;8.808;2023-05-16T17:16:49;4.40;;;0.97;;
9042;SDS011;4556;49.150;8.808;2023-05-16T17:19:16;3.47;;;0.80;;
9042;SDS011;4556;49.150;8.808;2023-05-16T17:21:45;3.20;;;1.03;;
9042;SDS011;4556;49.150;8.808;2023-05-16T17:24:25;4.07;;;0.93;;
9042;SDS011;4556;49.150;8.808;2023-05-16T17:26:54;2.23;;;0.80;;
9042;SDS011;4556;49.150;8.808;2023-05-16T17:29:24;3.97;;;1.00;;
9042;SDS011;4556;49.150;8.808;2023-05-16T17:31:55;2.30;;;0.87;;
9042;SDS011;4556;49.150;8.808;2023-05-16T17:34:24;2.47;;;0.80;;
9042;SDS011;4556;49.150;8.808;2023-05-16T17:37:00;2.10;;;1.10;;
9042;SDS011;4556;49.150;8.808;2023-05-16T17:39:27;4.20;;;1.03;;
9042;SDS011;4556;49.150;8.808;2023-05-16T17:44:44;3.33;;;0.77;;
9042;SDS011;4556;49.150;8.808;2023-05-16T17:47:20;1.67;;;0.80;;
9042;SDS011;4556;49.150;8.808;2023-05-16T17:50:01;3.87;;;1.00;;
9042;SDS011;4556;49.150;8.808;2023-05-16T17:52:30;2.47;;;0.80;;
9042;SDS011;4556;49.150;8.808;2023-05-16T17:55:16;1.77;;;0.80;;
9042;SDS011;4556;49.150;8.808;2023-05-16T17:58:05;3.10;;;0.57;;
9042;SDS011;4556;49.150;8.808;2023-05-16T18:00:33;4.10;;;0.97;;
9042;SDS011;4556;49.150;8.808;2023-05-16T18:03:02;4.20;;;1.00;;
9042;SDS011;4556;49.150;8.808;2023-05-16T18:05:30;3.03;;;1.00;;
9042;SDS011;4556;49.150;8.808;2023-05-16T18:07:57;2.13;;;0.67;;
9042;SDS011;4556;49.150;8.808;2023-05-16T18:10:26;2.07;;;0.97;;
9042;SDS011;4556;49.150;8.808;2023-05-16T18:31:32;3.57;;;1.10;;
9042;SDS011;4556;49.150;8.808;2023-05-16T18:33:59;5.53;;;0.93;;
9042;SDS011;4556;49.150;8.808;2023-05-16T19:13:04;4.37;;;1.03;;
9042;SDS011;4556;49.150;8.808;2023-05-16T19:15:32;3.33;;;0.80;;
9042;SDS011;4556;49.150;8.808;2023-05-16T19:20:48;2.27;;;0.80;;
9042;SDS011;4556;49.150;8.808;2023-05-16T19:23:18;2.93;;;1.00;;
9042;SDS011;4556;49.150;8.808;2023-05-16T19:31:14;2.20;;;0.83;;
9042;SDS011;4556;49.150;8.808;2023-05-16T19:33:42;2.07;;;0.70;;
9042;SDS011;4556;49.150;8.808;2023-05-16T19:36:35;2.57;;;0.83;;
9042;SDS011;4556;49.150;8.808;2023-05-16T20:12:10;3.20;;;1.10;;
9042;SDS011;4556;49.150;8.808;2023-05-16T20:14:37;2.23;;;0.80;;
9042;SDS011;4556;49.150;8.808;2023-05-16T20:17:04;2.10;;;0.80;;
9042;SDS011;4556;49.150;8.808;2023-05-16T20:19:32;2.40;;;0.77;;
9042;SDS011;4556;49.150;8.808;2023-05-16T20:21:59;2.30;;;0.80;;
9042;SDS011;4556;49.150;8.808;2023-05-16T20:24:26;3.60;;;1.20;;
9042;SDS011;4556;49.150;8.808;2023-05-16T20:26:53;4.40;;;0.97;;
9042;SDS011;4556;49.150;8.808;2023-05-16T20:29:22;4.07;;;0.70;;
9042;SDS011;4556;49.150;8.808;2023-05-16T20:31:49;2.37;;;0.80;;
9042;SDS011;4556;49.150;8.808;2023-05-16T20:34:17;1.23;;;0.73;;
9042;SDS011;4556;49.150;8.808;2023-05-16T20:36:44;1.90;;;1.10;;
9042;SDS011;4556;49.150;8.808;2023-05-16T20:39:12;1.80;;;0.90;;
9042;SDS011;4556;49.150;8.808;2023-05-16T20:41:39;1.90;;;0.90;;
9042;SDS011;4556;49.150;8.808;2023-05-16T20:44:06;2.33;;;0.90;;
9042;SDS011;4556;49.150;8.808;2023-05-16T20:46:35;2.50;;;0.80;;
9042;SDS011;4556;49.150;8.808;2023-05-16T20:49:12;3.33;;;0.80;;
9042;SDS011;4556;49.150;8.808;2023-05-16T20:51:39;3.57;;;0.80;;
9042;SDS011;4556;49.150;8.808;2023-05-16T20:54:06;3.47;;;0.90;;
9042;SDS011;4556;49.150;8.808;2023-05-16T20:56:34;5.13;;;0.87;;
9042;SDS011;4556;49.150;8.808;2023-05-16T20:59:02;1.57;;;0.70;;
9042;SDS011;4556;49.150;8.808;2023-05-16T21:01:29;2.43;;;0.57;;
9042;SDS011;4556;49.150;8.808;2023-05-16T21:03:58;3.67;;;1.07;;
9042;SDS011;4556;49.150;8.808;2023-05-16T21:06:25;4.07;;;0.90;;
9042;SDS011;4556;49.150;8.808;2023-05-16T21:08:52;4.37;;;0.90;;
9042;SDS011;4556;49.150;8.808;2023-05-16T21:11:20;1.53;;;0.87;;
9042;SDS011;4556;49.150;8.808;2023-05-16T21:13:47;1.30;;;0.67;;
9042;SDS011;4556;49.150;8.808;2023-05-16T21:16:14;2.70;;;0.70;;
9042;SDS011;4556;49.150;8.808;2023-05-16T21:18:59;2.20;;;0.80;;
9042;SDS011;4556;49.150;8.808;2023-05-16T21:21:29;1.17;;;0.50;;
9042;SDS011;4556;49.150;8.808;2023-05-16T21:23:58;2.80;;;0.80;;
9042;SDS011;4556;49.150;8.808;2023-05-16T21:26:25;2.97;;;0.80;;
9042;SDS011;4556;49.150;8.808;2023-05-16T21:28:54;1.63;;;0.63;;
9042;SDS011;4556;49.150;8.808;2023-05-16T21:31:23;2.93;;;0.90;;
9042;SDS011;4556;49.150;8.808;2023-05-16T21:33:50;2.97;;;0.90;;
9042;SDS011;4556;49.150;8.808;2023-05-16T21:36:37;2.63;;;0.83;;
9042;SDS011;4556;49.150;8.808;2023-05-16T22:10:59;3.70;;;1.00;;
9042;SDS011;4556;49.150;8.808;2023-05-16T22:53:52;2.43;;;0.97;;
9042;SDS011;4556;49.150;8.808;2023-05-16T22:59:00;2.03;;;0.70;;
9042;SDS011;4556;49.150;8.808;2023-05-16T23:01:27;2.43;;;0.80;;
9042;SDS011;4556;49.150;8.808;2023-05-16T23:03:56;2.03;;;1.00;;
9042;SDS011;4556;49.150;8.808;2023-05-16T23:06:24;2.67;;;0.80;;